sensor_id;sensor_type;location;lat;lon;timestamp;P1;durP1;ratioP1;P2;durP2;ratioP2
7471;SDS011;3777;48.722;8.110;2022-10-16T00:01:13;2.13;;;1.47;;
7471;SDS011;3777;48.722;8.110;2022-10-16T00:03:41;2.23;;;1.57;;
7471;SDS011;3777;48.722;8.110;2022-10-16T00:06:09;2.57;;;1.40;;
7471;SDS011;3777;48.722;8.110;2022-10-16T00:08:37;2.17;;;1.47;;
7471;SDS011;3777;48.722;8.110;2022-10-16T00:11:06;1.60;;;1.50;;
7471;SDS011;3777;48.722;8.110;2022-10-16T00:13:35;3.20;;;1.60;;
7471;SDS011;3777;48.722;8.110;2022-10-16T00:16:05;1.50;;;1.30;;
7471;SDS011;3777;48.722;8.110;2022-10-16T00:18:32;2.30;;;1.40;;
7471;SDS011;3777;48.722;8.110;2022-10-16T00:21:03;3.60;;;1.30;;
7471;SDS011;3777;48.722;8.110;2022-10-16T00:23:31;1.97;;;1.50;;
7471;SDS011;3777;48.722;8.110;2022-10-16T00:25:59;1.50;;;1.40;;
7471;SDS011;3777;48.722;8.110;2022-10-16T00:28:28;3.00;;;1.47;;
7471;SDS011;3777;48.722;8.110;2022-10-16T00:30:55;3.20;;;1.53;;
7471;SDS011;3777;48.722;8.110;2022-10-16T00:33:24;2.87;;;1.60;;
7471;SDS011;3777;48.722;8.110;2022-10-16T00:35:51;4.70;;;1.70;;
7471;SDS011;3777;48.722;8.110;2022-10-16T00:38:17;2.43;;;1.50;;
7471;SDS011;3777;48.722;8.110;2022-10-16T00:40:44;3.27;;;1.80;;
7471;SDS011;3777;48.722;8.110;2022-10-16T00:43:12;3.63;;;1.97;;
7471;SDS011;3777;48.722;8.110;2022-10-16T00:45:58;2.43;;;1.33;;
7471;SDS011;3777;48.722;8.110;2022-10-16T00:48:26;2.97;;;1.70;;
7471;SDS011;3777;48.722;8.110;2022-10-16T00:50:54;1.87;;;1.53;;
7471;SDS011;3777;48.722;8.110;2022-10-16T00:53:22;3.23;;;1.60;;
7471;SDS011;3777;48.722;8.110;2022-10-16T00:55:50;3.13;;;1.60;;
7471;SDS011;3777;48.722;8.110;2022-10-16T00:58:18;3.83;;;1.40;;
7471;SDS011;3777;48.722;8.110;2022-10-16T01:00:45;2.40;;;1.50;;
7471;SDS011;3777;48.722;8.110;2022-10-16T01:03:23;2.70;;;1.60;;
7471;SDS011;3777;48.722;8.110;2022-10-16T01:05:58;1.73;;;1.40;;
7471;SDS011;3777;48.722;8.110;2022-10-16T01:08:44;5.20;;;1.87;;
7471;SDS011;3777;48.722;8.110;2022-10-16T01:11:17;1.80;;;1.53;;
7471;SDS011;3777;48.722;8.110;2022-10-16T01:13:50;2.50;;;1.67;;
7471;SDS011;3777;48.722;8.110;2022-10-16T01:16:22;1.83;;;1.60;;
7471;SDS011;3777;48.722;8.110;2022-10-16T01:18:59;2.83;;;1.70;;
7471;SDS011;3777;48.722;8.110;2022-10-16T01:21:35;1.77;;;1.40;;
7471;SDS011;3777;48.722;8.110;2022-10-16T01:24:06;2.23;;;1.67;;
7471;SDS011;3777;48.722;8.110;2022-10-16T01:29:34;3.17;;;1.70;;
7471;SDS011;3777;48.722;8.110;2022-10-16T01:32:08;3.07;;;2.00;;
7471;SDS011;3777;48.722;8.110;2022-10-16T01:34:42;3.60;;;2.13;;
7471;SDS011;3777;48.722;8.110;2022-10-16T01:37:14;2.20;;;2.00;;
7471;SDS011;3777;48.722;8.110;2022-10-16T01:39:46;2.47;;;2.10;;
7471;SDS011;3777;48.722;8.110;2022-10-16T01:42:17;3.60;;;2.00;;
7471;SDS011;3777;48.722;8.110;2022-10-16T01:44:48;2.30;;;1.90;;
7471;SDS011;3777;48.722;8.110;2022-10-16T01:47:17;3.83;;;2.40;;
7471;SDS011;3777;48.722;8.110;2022-10-16T01:49:47;4.50;;;2.47;;
7471;SDS011;3777;48.722;8.110;2022-10-16T01:52:16;3.67;;;2.70;;
7471;SDS011;3777;48.722;8.110;2022-10-16T01:54:47;4.80;;;2.43;;
7471;SDS011;3777;48.722;8.110;2022-10-16T01:57:19;3.63;;;2.10;;
7471;SDS011;3777;48.722;8.110;2022-10-16T01:59:48;2.67;;;2.00;;
7471;SDS011;3777;48.722;8.110;2022-10-16T02:02:19;3.33;;;1.90;;
7471;SDS011;3777;48.722;8.110;2022-10-16T02:04:48;4.50;;;1.87;;
7471;SDS011;3777;48.722;8.110;2022-10-16T02:07:19;4.53;;;1.83;;
7471;SDS011;3777;48.722;8.110;2022-10-16T02:09:46;3.80;;;1.73;;
7471;SDS011;3777;48.722;8.110;2022-10-16T02:12:13;3.00;;;1.67;;
7471;SDS011;3777;48.722;8.110;2022-10-16T02:14:47;4.17;;;1.90;;
7471;SDS011;3777;48.722;8.110;2022-10-16T02:17:15;3.73;;;1.70;;
7471;SDS011;3777;48.722;8.110;2022-10-16T02:19:43;2.67;;;1.73;;
7471;SDS011;3777;48.722;8.110;2022-10-16T02:22:14;10.57;;;1.90;;
7471;SDS011;3777;48.722;8.110;2022-10-16T02:24:47;3.77;;;1.90;;
7471;SDS011;3777;48.722;8.110;2022-10-16T02:27:20;3.57;;;1.80;;
7471;SDS011;3777;48.722;8.110;2022-10-16T02:29:53;5.57;;;1.90;;
7471;SDS011;3777;48.722;8.110;2022-10-16T02:32:25;4.20;;;1.80;;
7471;SDS011;3777;48.722;8.110;2022-10-16T02:34:56;5.07;;;1.93;;
7471;SDS011;3777;48.722;8.110;2022-10-16T02:37:24;2.30;;;1.70;;
7471;SDS011;3777;48.722;8.110;2022-10-16T02:39:53;5.43;;;2.27;;
7471;SDS011;3777;48.722;8.110;2022-10-16T02:42:26;2.97;;;2.00;;
7471;SDS011;3777;48.722;8.110;2022-10-16T02:44:56;5.53;;;1.97;;
7471;SDS011;3777;48.722;8.110;2022-10-16T02:47:23;6.53;;;2.00;;
7471;SDS011;3777;48.722;8.110;2022-10-16T02:49:50;5.63;;;2.30;;
7471;SDS011;3777;48.722;8.110;2022-10-16T02:52:17;4.83;;;2.00;;
7471;SDS011;3777;48.722;8.110;2022-10-16T02:54:43;8.33;;;2.40;;
7471;SDS011;3777;48.722;8.110;2022-10-16T02:57:10;5.00;;;2.10;;
7471;SDS011;3777;48.722;8.110;2022-10-16T02:59:37;4.23;;;1.90;;
7471;SDS011;3777;48.722;8.110;2022-10-16T03:02:06;5.93;;;2.50;;
7471;SDS011;3777;48.722;8.110;2022-10-16T03:04:33;5.27;;;2.20;;
7471;SDS011;3777;48.722;8.110;2022-10-16T03:07:00;3.47;;;2.00;;
7471;SDS011;3777;48.722;8.110;2022-10-16T03:09:27;3.77;;;2.00;;
7471;SDS011;3777;48.722;8.110;2022-10-16T03:11:54;6.37;;;2.17;;
7471;SDS011;3777;48.722;8.110;2022-10-16T03:14:21;3.60;;;2.00;;
7471;SDS011;3777;48.722;8.110;2022-10-16T03:16:48;3.20;;;2.20;;
7471;SDS011;3777;48.722;8.110;2022-10-16T03:19:17;5.30;;;1.97;;
7471;SDS011;3777;48.722;8.110;2022-10-16T03:21:44;3.23;;;2.10;;
7471;SDS011;3777;48.722;8.110;2022-10-16T03:24:11;4.97;;;2.00;;
7471;SDS011;3777;48.722;8.110;2022-10-16T03:26:38;3.23;;;2.20;;
7471;SDS011;3777;48.722;8.110;2022-10-16T03:29:05;3.93;;;2.07;;
7471;SDS011;3777;48.722;8.110;2022-10-16T03:31:32;4.87;;;2.20;;
7471;SDS011;3777;48.722;8.110;2022-10-16T03:33:59;2.97;;;2.00;;
7471;SDS011;3777;48.722;8.110;2022-10-16T03:36:27;6.53;;;2.40;;
7471;SDS011;3777;48.722;8.110;2022-10-16T03:38:54;3.60;;;2.20;;
7471;SDS011;3777;48.722;8.110;2022-10-16T03:41:21;4.80;;;2.30;;
7471;SDS011;3777;48.722;8.110;2022-10-16T03:43:48;4.07;;;2.20;;
7471;SDS011;3777;48.722;8.110;2022-10-16T03:46:15;3.80;;;2.20;;
7471;SDS011;3777;48.722;8.110;2022-10-16T03:48:42;5.50;;;2.10;;
7471;SDS011;3777;48.722;8.110;2022-10-16T03:51:09;6.03;;;2.20;;
7471;SDS011;3777;48.722;8.110;2022-10-16T03:53:37;4.33;;;2.20;;
7471;SDS011;3777;48.722;8.110;2022-10-16T03:56:05;2.70;;;2.20;;
7471;SDS011;3777;48.722;8.110;2022-10-16T03:58:32;5.23;;;2.33;;
7471;SDS011;3777;48.722;8.110;2022-10-16T04:00:59;2.30;;;2.10;;
7471;SDS011;3777;48.722;8.110;2022-10-16T04:03:26;5.10;;;2.20;;
7471;SDS011;3777;48.722;8.110;2022-10-16T04:05:53;2.37;;;2.17;;
7471;SDS011;3777;48.722;8.110;2022-10-16T04:08:20;3.43;;;2.13;;
7471;SDS011;3777;48.722;8.110;2022-10-16T04:10:48;3.60;;;2.40;;
7471;SDS011;3777;48.722;8.110;2022-10-16T04:13:15;3.73;;;2.57;;
7471;SDS011;3777;48.722;8.110;2022-10-16T04:15:44;2.90;;;2.20;;
7471;SDS011;3777;48.722;8.110;2022-10-16T04:18:11;2.90;;;2.20;;
7471;SDS011;3777;48.722;8.110;2022-10-16T04:20:38;4.47;;;2.50;;
7471;SDS011;3777;48.722;8.110;2022-10-16T04:23:05;6.50;;;2.50;;
7471;SDS011;3777;48.722;8.110;2022-10-16T04:25:32;7.03;;;2.50;;
7471;SDS011;3777;48.722;8.110;2022-10-16T04:28:00;3.87;;;2.40;;
7471;SDS011;3777;48.722;8.110;2022-10-16T04:30:28;4.33;;;2.60;;
7471;SDS011;3777;48.722;8.110;2022-10-16T04:32:55;4.23;;;2.60;;
7471;SDS011;3777;48.722;8.110;2022-10-16T04:35:22;5.63;;;2.70;;
7471;SDS011;3777;48.722;8.110;2022-10-16T04:37:49;5.63;;;2.47;;
7471;SDS011;3777;48.722;8.110;2022-10-16T04:40:16;3.20;;;2.47;;
7471;SDS011;3777;48.722;8.110;2022-10-16T04:42:43;6.27;;;2.40;;
7471;SDS011;3777;48.722;8.110;2022-10-16T04:45:11;2.10;;;1.90;;
7471;SDS011;3777;48.722;8.110;2022-10-16T04:47:38;3.60;;;2.53;;
7471;SDS011;3777;48.722;8.110;2022-10-16T04:50:05;3.13;;;2.23;;
7471;SDS011;3777;48.722;8.110;2022-10-16T04:52:33;3.83;;;2.03;;
7471;SDS011;3777;48.722;8.110;2022-10-16T04:55:00;3.00;;;2.23;;
7471;SDS011;3777;48.722;8.110;2022-10-16T04:57:28;4.00;;;2.40;;
7471;SDS011;3777;48.722;8.110;2022-10-16T04:59:55;3.20;;;2.30;;
7471;SDS011;3777;48.722;8.110;2022-10-16T05:02:23;2.23;;;2.03;;
7471;SDS011;3777;48.722;8.110;2022-10-16T05:04:51;7.03;;;2.23;;
7471;SDS011;3777;48.722;8.110;2022-10-16T05:07:18;4.27;;;2.20;;
7471;SDS011;3777;48.722;8.110;2022-10-16T05:09:45;2.30;;;2.10;;
7471;SDS011;3777;48.722;8.110;2022-10-16T05:12:12;4.07;;;2.83;;
7471;SDS011;3777;48.722;8.110;2022-10-16T05:14:38;6.10;;;2.70;;
7471;SDS011;3777;48.722;8.110;2022-10-16T05:17:05;4.23;;;2.40;;
7471;SDS011;3777;48.722;8.110;2022-10-16T05:19:34;4.07;;;2.77;;
7471;SDS011;3777;48.722;8.110;2022-10-16T05:22:01;3.80;;;2.53;;
7471;SDS011;3777;48.722;8.110;2022-10-16T05:24:28;5.13;;;2.53;;
7471;SDS011;3777;48.722;8.110;2022-10-16T05:26:55;4.07;;;3.10;;
7471;SDS011;3777;48.722;8.110;2022-10-16T05:29:22;3.57;;;2.90;;
7471;SDS011;3777;48.722;8.110;2022-10-16T05:31:52;5.17;;;2.63;;
7471;SDS011;3777;48.722;8.110;2022-10-16T05:34:19;6.63;;;2.87;;
7471;SDS011;3777;48.722;8.110;2022-10-16T05:36:48;5.03;;;2.90;;
7471;SDS011;3777;48.722;8.110;2022-10-16T05:39:15;7.50;;;3.17;;
7471;SDS011;3777;48.722;8.110;2022-10-16T05:41:42;5.53;;;2.80;;
7471;SDS011;3777;48.722;8.110;2022-10-16T05:44:09;6.60;;;3.03;;
7471;SDS011;3777;48.722;8.110;2022-10-16T05:46:36;5.33;;;2.50;;
7471;SDS011;3777;48.722;8.110;2022-10-16T05:49:03;3.67;;;2.47;;
7471;SDS011;3777;48.722;8.110;2022-10-16T05:51:30;3.33;;;2.57;;
7471;SDS011;3777;48.722;8.110;2022-10-16T05:53:59;7.00;;;2.80;;
7471;SDS011;3777;48.722;8.110;2022-10-16T05:56:25;4.93;;;2.80;;
7471;SDS011;3777;48.722;8.110;2022-10-16T05:58:52;5.97;;;2.90;;
7471;SDS011;3777;48.722;8.110;2022-10-16T06:01:19;5.83;;;2.60;;
7471;SDS011;3777;48.722;8.110;2022-10-16T06:03:49;5.77;;;2.57;;
7471;SDS011;3777;48.722;8.110;2022-10-16T06:06:17;3.87;;;2.90;;
7471;SDS011;3777;48.722;8.110;2022-10-16T06:08:48;4.10;;;2.67;;
7471;SDS011;3777;48.722;8.110;2022-10-16T06:11:18;4.53;;;2.57;;
7471;SDS011;3777;48.722;8.110;2022-10-16T06:13:48;5.23;;;2.70;;
7471;SDS011;3777;48.722;8.110;2022-10-16T06:16:16;5.57;;;2.60;;
7471;SDS011;3777;48.722;8.110;2022-10-16T06:18:43;5.00;;;2.97;;
7471;SDS011;3777;48.722;8.110;2022-10-16T06:21:11;2.90;;;2.60;;
7471;SDS011;3777;48.722;8.110;2022-10-16T06:23:40;3.20;;;2.70;;
7471;SDS011;3777;48.722;8.110;2022-10-16T06:26:07;6.90;;;2.60;;
7471;SDS011;3777;48.722;8.110;2022-10-16T06:28:35;3.63;;;2.60;;
7471;SDS011;3777;48.722;8.110;2022-10-16T06:31:03;7.50;;;2.90;;
7471;SDS011;3777;48.722;8.110;2022-10-16T06:33:31;3.43;;;2.80;;
7471;SDS011;3777;48.722;8.110;2022-10-16T06:36:02;3.90;;;2.40;;
7471;SDS011;3777;48.722;8.110;2022-10-16T06:38:30;6.70;;;3.07;;
7471;SDS011;3777;48.722;8.110;2022-10-16T06:40:57;5.80;;;2.60;;
7471;SDS011;3777;48.722;8.110;2022-10-16T06:43:25;4.97;;;2.53;;
7471;SDS011;3777;48.722;8.110;2022-10-16T06:45:53;4.37;;;3.00;;
7471;SDS011;3777;48.722;8.110;2022-10-16T06:48:21;6.27;;;3.07;;
7471;SDS011;3777;48.722;8.110;2022-10-16T06:50:56;9.13;;;3.77;;
7471;SDS011;3777;48.722;8.110;2022-10-16T06:53:23;6.70;;;3.20;;
7471;SDS011;3777;48.722;8.110;2022-10-16T06:55:51;6.17;;;3.60;;
7471;SDS011;3777;48.722;8.110;2022-10-16T06:58:18;6.47;;;4.10;;
7471;SDS011;3777;48.722;8.110;2022-10-16T07:00:45;5.57;;;3.30;;
7471;SDS011;3777;48.722;8.110;2022-10-16T07:03:14;3.57;;;3.00;;
7471;SDS011;3777;48.722;8.110;2022-10-16T07:05:41;6.80;;;3.07;;
7471;SDS011;3777;48.722;8.110;2022-10-16T07:08:09;3.13;;;2.73;;
7471;SDS011;3777;48.722;8.110;2022-10-16T07:10:36;6.90;;;2.53;;
7471;SDS011;3777;48.722;8.110;2022-10-16T07:13:03;3.93;;;2.50;;
7471;SDS011;3777;48.722;8.110;2022-10-16T07:15:30;3.47;;;2.20;;
7471;SDS011;3777;48.722;8.110;2022-10-16T07:17:57;2.30;;;2.10;;
7471;SDS011;3777;48.722;8.110;2022-10-16T07:20:25;4.83;;;2.27;;
7471;SDS011;3777;48.722;8.110;2022-10-16T07:22:52;3.70;;;2.10;;
7471;SDS011;3777;48.722;8.110;2022-10-16T07:25:19;5.17;;;2.40;;
7471;SDS011;3777;48.722;8.110;2022-10-16T07:27:46;4.63;;;2.47;;
7471;SDS011;3777;48.722;8.110;2022-10-16T07:30:13;3.77;;;2.20;;
7471;SDS011;3777;48.722;8.110;2022-10-16T07:32:40;2.90;;;2.10;;
7471;SDS011;3777;48.722;8.110;2022-10-16T07:35:07;4.67;;;2.47;;
7471;SDS011;3777;48.722;8.110;2022-10-16T07:37:36;4.30;;;2.43;;
7471;SDS011;3777;48.722;8.110;2022-10-16T07:40:03;5.33;;;2.60;;
7471;SDS011;3777;48.722;8.110;2022-10-16T07:42:31;4.70;;;2.50;;
7471;SDS011;3777;48.722;8.110;2022-10-16T07:44:58;2.57;;;2.37;;
7471;SDS011;3777;48.722;8.110;2022-10-16T07:47:25;3.43;;;2.40;;
7471;SDS011;3777;48.722;8.110;2022-10-16T07:49:52;4.70;;;2.70;;
7471;SDS011;3777;48.722;8.110;2022-10-16T07:52:19;3.53;;;2.50;;
7471;SDS011;3777;48.722;8.110;2022-10-16T07:54:47;4.30;;;2.33;;
7471;SDS011;3777;48.722;8.110;2022-10-16T07:57:14;5.03;;;2.53;;
7471;SDS011;3777;48.722;8.110;2022-10-16T07:59:44;4.07;;;2.30;;
7471;SDS011;3777;48.722;8.110;2022-10-16T08:02:11;4.93;;;2.30;;
7471;SDS011;3777;48.722;8.110;2022-10-16T08:04:38;5.27;;;2.53;;
7471;SDS011;3777;48.722;8.110;2022-10-16T08:07:06;5.27;;;2.90;;
7471;SDS011;3777;48.722;8.110;2022-10-16T08:09:33;5.13;;;2.70;;
7471;SDS011;3777;48.722;8.110;2022-10-16T08:12:02;6.63;;;2.50;;
7471;SDS011;3777;48.722;8.110;2022-10-16T08:14:30;8.70;;;2.73;;
7471;SDS011;3777;48.722;8.110;2022-10-16T08:16:57;4.53;;;2.30;;
7471;SDS011;3777;48.722;8.110;2022-10-16T08:19:23;3.10;;;2.40;;
7471;SDS011;3777;48.722;8.110;2022-10-16T08:21:50;5.97;;;2.27;;
7471;SDS011;3777;48.722;8.110;2022-10-16T08:24:17;2.97;;;2.20;;
7471;SDS011;3777;48.722;8.110;2022-10-16T08:26:44;4.03;;;2.30;;
7471;SDS011;3777;48.722;8.110;2022-10-16T08:29:14;4.87;;;2.20;;
7471;SDS011;3777;48.722;8.110;2022-10-16T08:31:41;3.30;;;2.30;;
7471;SDS011;3777;48.722;8.110;2022-10-16T08:34:08;6.67;;;2.03;;
7471;SDS011;3777;48.722;8.110;2022-10-16T08:36:35;4.13;;;2.40;;
7471;SDS011;3777;48.722;8.110;2022-10-16T08:39:02;5.60;;;2.17;;
7471;SDS011;3777;48.722;8.110;2022-10-16T08:41:33;4.40;;;2.20;;
7471;SDS011;3777;48.722;8.110;2022-10-16T08:47:45;2.93;;;1.70;;
7471;SDS011;3777;48.722;8.110;2022-10-16T08:50:19;5.10;;;1.98;;
7471;SDS011;3777;48.722;8.110;2022-10-16T08:52:50;4.75;;;1.90;;
7471;SDS011;3777;48.722;8.110;2022-10-16T08:55:22;2.95;;;1.77;;
7471;SDS011;3777;48.722;8.110;2022-10-16T08:57:59;4.60;;;1.95;;
7471;SDS011;3777;48.722;8.110;2022-10-16T09:00:27;3.35;;;2.05;;
7471;SDS011;3777;48.722;8.110;2022-10-16T09:02:59;4.85;;;2.10;;
7471;SDS011;3777;48.722;8.110;2022-10-16T09:05:39;4.72;;;1.95;;
7471;SDS011;3777;48.722;8.110;2022-10-16T09:08:22;3.45;;;2.00;;
7471;SDS011;3777;48.722;8.110;2022-10-16T09:10:59;3.97;;;2.00;;
7471;SDS011;3777;48.722;8.110;2022-10-16T09:13:35;3.90;;;1.98;;
7471;SDS011;3777;48.722;8.110;2022-10-16T09:16:15;9.20;;;2.10;;
7471;SDS011;3777;48.722;8.110;2022-10-16T09:18:51;4.97;;;2.10;;
7471;SDS011;3777;48.722;8.110;2022-10-16T09:21:23;3.30;;;1.80;;
7471;SDS011;3777;48.722;8.110;2022-10-16T09:23:52;4.60;;;1.85;;
7471;SDS011;3777;48.722;8.110;2022-10-16T09:26:23;4.45;;;2.13;;
7471;SDS011;3777;48.722;8.110;2022-10-16T09:28:51;4.05;;;1.67;;
7471;SDS011;3777;48.722;8.110;2022-10-16T09:31:19;3.25;;;1.60;;
7471;SDS011;3777;48.722;8.110;2022-10-16T09:33:48;6.97;;;2.00;;
7471;SDS011;3777;48.722;8.110;2022-10-16T09:36:21;6.15;;;2.30;;
7471;SDS011;3777;48.722;8.110;2022-10-16T09:39:00;3.28;;;1.83;;
7471;SDS011;3777;48.722;8.110;2022-10-16T09:41:29;5.05;;;1.77;;
7471;SDS011;3777;48.722;8.110;2022-10-16T09:43:56;2.13;;;1.65;;
7471;SDS011;3777;48.722;8.110;2022-10-16T09:46:26;5.03;;;1.73;;
7471;SDS011;3777;48.722;8.110;2022-10-16T09:48:56;3.22;;;1.70;;
7471;SDS011;3777;48.722;8.110;2022-10-16T09:51:26;6.05;;;1.95;;
7471;SDS011;3777;48.722;8.110;2022-10-16T09:53:55;4.50;;;1.95;;
7471;SDS011;3777;48.722;8.110;2022-10-16T09:56:24;7.30;;;2.00;;
7471;SDS011;3777;48.722;8.110;2022-10-16T09:58:53;6.32;;;1.80;;
7471;SDS011;3777;48.722;8.110;2022-10-16T10:01:21;3.85;;;1.95;;
7471;SDS011;3777;48.722;8.110;2022-10-16T10:03:51;4.10;;;1.77;;
7471;SDS011;3777;48.722;8.110;2022-10-16T10:06:29;3.95;;;1.70;;
7471;SDS011;3777;48.722;8.110;2022-10-16T10:08:59;3.53;;;2.10;;
7471;SDS011;3777;48.722;8.110;2022-10-16T10:11:40;5.63;;;1.88;;
7471;SDS011;3777;48.722;8.110;2022-10-16T10:14:13;3.50;;;1.70;;
7471;SDS011;3777;48.722;8.110;2022-10-16T10:16:44;3.90;;;1.67;;
7471;SDS011;3777;48.722;8.110;2022-10-16T10:19:14;5.70;;;1.92;;
7471;SDS011;3777;48.722;8.110;2022-10-16T10:21:43;3.50;;;1.80;;
7471;SDS011;3777;48.722;8.110;2022-10-16T10:24:10;6.30;;;1.70;;
7471;SDS011;3777;48.722;8.110;2022-10-16T10:26:39;2.38;;;1.80;;
7471;SDS011;3777;48.722;8.110;2022-10-16T10:29:12;5.50;;;1.83;;
7471;SDS011;3777;48.722;8.110;2022-10-16T10:31:49;6.10;;;1.48;;
7471;SDS011;3777;48.722;8.110;2022-10-16T10:34:35;5.90;;;1.95;;
7471;SDS011;3777;48.722;8.110;2022-10-16T10:37:14;5.65;;;2.00;;
7471;SDS011;3777;48.722;8.110;2022-10-16T10:39:55;4.70;;;1.92;;
7471;SDS011;3777;48.722;8.110;2022-10-16T10:42:33;7.45;;;1.70;;
7471;SDS011;3777;48.722;8.110;2022-10-16T10:45:16;4.82;;;1.65;;
7471;SDS011;3777;48.722;8.110;2022-10-16T10:47:48;3.33;;;1.80;;
7471;SDS011;3777;48.722;8.110;2022-10-16T10:50:35;5.63;;;1.70;;
7471;SDS011;3777;48.722;8.110;2022-10-16T10:53:11;6.88;;;1.90;;
7471;SDS011;3777;48.722;8.110;2022-10-16T10:55:48;6.75;;;1.92;;
7471;SDS011;3777;48.722;8.110;2022-10-16T11:01:18;4.10;;;1.70;;
7471;SDS011;3777;48.722;8.110;2022-10-16T11:03:57;2.97;;;1.88;;
7471;SDS011;3777;48.722;8.110;2022-10-16T11:06:47;5.45;;;1.73;;
7471;SDS011;3777;48.722;8.110;2022-10-16T11:09:20;2.92;;;1.73;;
7471;SDS011;3777;48.722;8.110;2022-10-16T11:11:51;4.32;;;1.60;;
7471;SDS011;3777;48.722;8.110;2022-10-16T11:14:22;5.03;;;1.80;;
7471;SDS011;3777;48.722;8.110;2022-10-16T11:16:54;5.00;;;1.88;;
7471;SDS011;3777;48.722;8.110;2022-10-16T11:19:28;4.18;;;1.90;;
7471;SDS011;3777;48.722;8.110;2022-10-16T11:24:40;5.40;;;1.83;;
7471;SDS011;3777;48.722;8.110;2022-10-16T11:27:12;4.50;;;2.00;;
7471;SDS011;3777;48.722;8.110;2022-10-16T11:29:44;4.03;;;1.80;;
7471;SDS011;3777;48.722;8.110;2022-10-16T11:32:19;2.35;;;1.80;;
7471;SDS011;3777;48.722;8.110;2022-10-16T11:34:50;3.72;;;1.75;;
7471;SDS011;3777;48.722;8.110;2022-10-16T11:37:25;4.22;;;1.80;;
7471;SDS011;3777;48.722;8.110;2022-10-16T11:39:57;6.18;;;1.80;;
7471;SDS011;3777;48.722;8.110;2022-10-16T11:42:32;5.05;;;1.90;;
7471;SDS011;3777;48.722;8.110;2022-10-16T11:45:07;3.20;;;1.85;;
7471;SDS011;3777;48.722;8.110;2022-10-16T11:47:41;2.30;;;1.80;;
7471;SDS011;3777;48.722;8.110;2022-10-16T11:50:13;7.10;;;2.08;;
7471;SDS011;3777;48.722;8.110;2022-10-16T11:52:51;5.32;;;2.10;;
7471;SDS011;3777;48.722;8.110;2022-10-16T11:55:23;6.45;;;2.00;;
7471;SDS011;3777;48.722;8.110;2022-10-16T11:57:57;7.07;;;2.28;;
7471;SDS011;3777;48.722;8.110;2022-10-16T12:00:29;2.72;;;1.85;;
7471;SDS011;3777;48.722;8.110;2022-10-16T12:03:03;4.53;;;1.75;;
7471;SDS011;3777;48.722;8.110;2022-10-16T12:05:42;4.47;;;1.90;;
7471;SDS011;3777;48.722;8.110;2022-10-16T12:08:23;2.67;;;1.77;;
7471;SDS011;3777;48.722;8.110;2022-10-16T12:10:50;2.78;;;2.00;;
7471;SDS011;3777;48.722;8.110;2022-10-16T12:13:27;1.80;;;1.70;;
7471;SDS011;3777;48.722;8.110;2022-10-16T12:16:05;2.25;;;2.00;;
7471;SDS011;3777;48.722;8.110;2022-10-16T12:18:45;5.95;;;2.00;;
7471;SDS011;3777;48.722;8.110;2022-10-16T12:21:14;4.38;;;1.90;;
7471;SDS011;3777;48.722;8.110;2022-10-16T12:23:48;2.17;;;1.90;;
7471;SDS011;3777;48.722;8.110;2022-10-16T12:26:23;2.47;;;1.90;;
7471;SDS011;3777;48.722;8.110;2022-10-16T12:28:51;3.40;;;1.88;;
7471;SDS011;3777;48.722;8.110;2022-10-16T12:31:19;2.15;;;1.80;;
7471;SDS011;3777;48.722;8.110;2022-10-16T12:33:53;3.00;;;1.90;;
7471;SDS011;3777;48.722;8.110;2022-10-16T12:36:27;6.55;;;2.25;;
7471;SDS011;3777;48.722;8.110;2022-10-16T12:38:57;3.75;;;1.80;;
7471;SDS011;3777;48.722;8.110;2022-10-16T12:41:26;2.90;;;1.90;;
7471;SDS011;3777;48.722;8.110;2022-10-16T12:43:54;4.43;;;3.70;;
7471;SDS011;3777;48.722;8.110;2022-10-16T12:49:21;4.30;;;2.10;;
7471;SDS011;3777;48.722;8.110;2022-10-16T12:51:55;5.30;;;2.00;;
7471;SDS011;3777;48.722;8.110;2022-10-16T12:54:25;2.25;;;1.77;;
7471;SDS011;3777;48.722;8.110;2022-10-16T12:56:59;5.32;;;2.20;;
7471;SDS011;3777;48.722;8.110;2022-10-16T12:59:42;6.50;;;2.30;;
7471;SDS011;3777;48.722;8.110;2022-10-16T13:05:19;3.10;;;2.00;;
7471;SDS011;3777;48.722;8.110;2022-10-16T13:08:02;4.15;;;2.42;;
7471;SDS011;3777;48.722;8.110;2022-10-16T13:10:40;5.03;;;1.90;;
7471;SDS011;3777;48.722;8.110;2022-10-16T13:13:16;4.00;;;1.83;;
7471;SDS011;3777;48.722;8.110;2022-10-16T13:16:02;2.60;;;2.03;;
7471;SDS011;3777;48.722;8.110;2022-10-16T13:18:40;4.97;;;2.40;;
7471;SDS011;3777;48.722;8.110;2022-10-16T13:21:17;4.55;;;2.17;;
7471;SDS011;3777;48.722;8.110;2022-10-16T13:23:55;4.30;;;2.13;;
7471;SDS011;3777;48.722;8.110;2022-10-16T13:26:31;5.65;;;2.25;;
7471;SDS011;3777;48.722;8.110;2022-10-16T13:29:07;4.28;;;2.15;;
7471;SDS011;3777;48.722;8.110;2022-10-16T13:31:36;6.72;;;2.50;;
7471;SDS011;3777;48.722;8.110;2022-10-16T13:34:05;2.25;;;1.90;;
7471;SDS011;3777;48.722;8.110;2022-10-16T13:36:43;2.67;;;1.80;;
7471;SDS011;3777;48.722;8.110;2022-10-16T13:39:12;3.00;;;1.90;;
7471;SDS011;3777;48.722;8.110;2022-10-16T13:41:43;1.85;;;1.67;;
7471;SDS011;3777;48.722;8.110;2022-10-16T13:44:14;5.35;;;2.30;;
7471;SDS011;3777;48.722;8.110;2022-10-16T13:46:57;4.32;;;2.00;;
7471;SDS011;3777;48.722;8.110;2022-10-16T13:49:26;2.95;;;1.90;;
7471;SDS011;3777;48.722;8.110;2022-10-16T13:51:53;3.97;;;1.98;;
7471;SDS011;3777;48.722;8.110;2022-10-16T13:54:21;5.63;;;2.38;;
7471;SDS011;3777;48.722;8.110;2022-10-16T13:56:49;5.00;;;2.30;;
7471;SDS011;3777;48.722;8.110;2022-10-16T13:59:26;3.70;;;2.28;;
7471;SDS011;3777;48.722;8.110;2022-10-16T14:01:58;4.07;;;2.55;;
7471;SDS011;3777;48.722;8.110;2022-10-16T14:04:32;3.58;;;2.30;;
7471;SDS011;3777;48.722;8.110;2022-10-16T14:06:59;3.10;;;2.25;;
7471;SDS011;3777;48.722;8.110;2022-10-16T14:09:27;4.88;;;2.58;;
7471;SDS011;3777;48.722;8.110;2022-10-16T14:11:57;2.83;;;2.40;;
7471;SDS011;3777;48.722;8.110;2022-10-16T14:14:26;4.00;;;2.53;;
7471;SDS011;3777;48.722;8.110;2022-10-16T14:16:57;4.20;;;2.60;;
7471;SDS011;3777;48.722;8.110;2022-10-16T14:19:25;4.97;;;2.50;;
7471;SDS011;3777;48.722;8.110;2022-10-16T14:21:53;6.28;;;2.95;;
7471;SDS011;3777;48.722;8.110;2022-10-16T14:24:25;4.63;;;2.47;;
7471;SDS011;3777;48.722;8.110;2022-10-16T14:26:58;3.25;;;2.13;;
7471;SDS011;3777;48.722;8.110;2022-10-16T14:29:26;4.45;;;2.25;;
7471;SDS011;3777;48.722;8.110;2022-10-16T14:31:56;2.72;;;2.05;;
7471;SDS011;3777;48.722;8.110;2022-10-16T14:34:25;4.85;;;2.72;;
7471;SDS011;3777;48.722;8.110;2022-10-16T14:36:53;5.18;;;2.80;;
7471;SDS011;3777;48.722;8.110;2022-10-16T14:39:21;3.55;;;2.40;;
7471;SDS011;3777;48.722;8.110;2022-10-16T14:41:50;7.40;;;2.90;;
7471;SDS011;3777;48.722;8.110;2022-10-16T14:44:19;8.52;;;5.65;;
7471;SDS011;3777;48.722;8.110;2022-10-16T14:46:53;7.30;;;6.45;;
7471;SDS011;3777;48.722;8.110;2022-10-16T14:49:20;7.15;;;4.80;;
7471;SDS011;3777;48.722;8.110;2022-10-16T14:51:49;7.00;;;4.53;;
7471;SDS011;3777;48.722;8.110;2022-10-16T14:54:17;5.55;;;2.72;;
7471;SDS011;3777;48.722;8.110;2022-10-16T14:56:46;4.68;;;2.85;;
7471;SDS011;3777;48.722;8.110;2022-10-16T14:59:15;4.13;;;2.50;;
7471;SDS011;3777;48.722;8.110;2022-10-16T15:01:47;3.65;;;2.50;;
7471;SDS011;3777;48.722;8.110;2022-10-16T15:04:14;3.17;;;2.90;;
7471;SDS011;3777;48.722;8.110;2022-10-16T15:06:42;5.78;;;4.60;;
7471;SDS011;3777;48.722;8.110;2022-10-16T15:09:09;5.88;;;5.00;;
7471;SDS011;3777;48.722;8.110;2022-10-16T15:11:36;11.95;;;8.52;;
7471;SDS011;3777;48.722;8.110;2022-10-16T15:14:04;8.60;;;4.88;;
7471;SDS011;3777;48.722;8.110;2022-10-16T15:16:31;6.35;;;2.90;;
7471;SDS011;3777;48.722;8.110;2022-10-16T15:19:00;3.92;;;2.55;;
7471;SDS011;3777;48.722;8.110;2022-10-16T15:21:27;3.88;;;2.55;;
7471;SDS011;3777;48.722;8.110;2022-10-16T15:23:55;4.90;;;2.78;;
7471;SDS011;3777;48.722;8.110;2022-10-16T15:26:23;3.70;;;3.15;;
7471;SDS011;3777;48.722;8.110;2022-10-16T15:28:50;8.95;;;4.03;;
7471;SDS011;3777;48.722;8.110;2022-10-16T15:31:18;4.55;;;3.28;;
7471;SDS011;3777;48.722;8.110;2022-10-16T15:33:48;8.68;;;3.00;;
7471;SDS011;3777;48.722;8.110;2022-10-16T15:36:25;5.82;;;2.88;;
7471;SDS011;3777;48.722;8.110;2022-10-16T15:38:52;7.07;;;3.20;;
7471;SDS011;3777;48.722;8.110;2022-10-16T15:41:20;4.30;;;2.58;;
7471;SDS011;3777;48.722;8.110;2022-10-16T15:43:47;7.78;;;3.05;;
7471;SDS011;3777;48.722;8.110;2022-10-16T15:46:15;6.03;;;2.40;;
7471;SDS011;3777;48.722;8.110;2022-10-16T15:48:44;4.43;;;2.40;;
7471;SDS011;3777;48.722;8.110;2022-10-16T15:51:11;4.85;;;2.55;;